createdAt,value
2022-09-29T00:00:52.831Z,943.25
2022-09-29T00:03:19.222Z,943.29
2022-09-29T00:05:45.494Z,943.46
2022-09-29T00:08:11.838Z,943.35
2022-09-29T00:10:38.152Z,943.21
2022-09-29T00:13:04.493Z,943.26
2022-09-29T00:15:30.832Z,943.23
2022-09-29T00:18:13.178Z,943.29
2022-09-29T00:20:23.509Z,943.29
2022-09-29T00:22:49.832Z,943.32
2022-09-29T00:25:16.161Z,943.29
2022-09-29T00:27:42.519Z,943.34
2022-09-29T00:30:08.838Z,943.35
2022-09-29T00:32:35.188Z,943.34
2022-09-29T00:35:01.522Z,943.26
2022-09-29T00:37:27.873Z,943.31
2022-09-29T00:39:54.211Z,943.29
2022-09-29T00:42:20.556Z,943.28
2022-09-29T00:44:46.890Z,943.14
2022-09-29T00:47:13.232Z,943.15
2022-09-29T00:49:39.591Z,943.12
2022-09-29T00:52:05.976Z,943.17
2022-09-29T00:54:32.312Z,943.22
2022-09-29T00:56:58.632Z,943.22
2022-09-29T00:59:24.978Z,943.23
2022-09-29T01:01:51.387Z,943.18
2022-09-29T01:04:17.694Z,943.22
2022-09-29T01:06:43.986Z,943.17
2022-09-29T01:09:10.307Z,943.20
2022-09-29T01:11:36.629Z,943.13
2022-09-29T01:14:02.975Z,943.12
2022-09-29T01:16:29.337Z,943.02
2022-09-29T01:18:55.609Z,943.03
2022-09-29T01:21:21.966Z,943.14
2022-09-29T01:23:48.303Z,943.13
2022-09-29T01:26:14.630Z,943.20
2022-09-29T01:28:40.968Z,943.20
2022-09-29T01:31:07.353Z,943.20
2022-09-29T01:33:33.662Z,943.25
2022-09-29T01:35:59.980Z,943.31
2022-09-29T01:38:26.330Z,943.26
2022-09-29T01:40:52.725Z,943.25
2022-09-29T01:43:18.967Z,943.34
2022-09-29T01:45:45.349Z,943.35
2022-09-29T01:48:11.644Z,943.38
2022-09-29T01:50:37.961Z,943.42
2022-09-29T01:53:04.302Z,943.41
2022-09-29T01:55:30.623Z,943.50
2022-09-29T01:57:56.941Z,943.56
2022-09-29T02:00:23.317Z,943.60
2022-09-29T02:02:49.632Z,943.52
2022-09-29T02:05:15.975Z,943.51
2022-09-29T02:07:42.317Z,943.44
2022-09-29T02:10:08.664Z,943.46
2022-09-29T02:12:34.975Z,943.48
2022-09-29T02:15:01.299Z,943.45
2022-09-29T02:17:27.640Z,943.56
2022-09-29T02:19:53.961Z,943.53
2022-09-29T02:22:20.304Z,943.62
2022-09-29T02:24:46.648Z,943.60
2022-09-29T02:27:13.030Z,943.61
2022-09-29T02:29:39.350Z,943.61
2022-09-29T02:32:05.691Z,943.54
2022-09-29T02:34:32.035Z,943.57
2022-09-29T02:36:58.348Z,943.65
2022-09-29T02:39:24.706Z,943.63
2022-09-29T02:41:51.026Z,943.69
2022-09-29T02:44:17.391Z,943.63
2022-09-29T02:46:43.706Z,943.74
2022-09-29T02:49:10.051Z,943.70
2022-09-29T02:51:36.387Z,943.70
2022-09-29T02:54:02.712Z,943.63
2022-09-29T02:56:29.033Z,943.58
2022-09-29T02:58:55.415Z,943.41
2022-09-29T03:01:21.778Z,943.56
2022-09-29T03:03:48.149Z,943.61
2022-09-29T03:06:14.411Z,943.47
2022-09-29T03:08:40.750Z,943.15
2022-09-29T03:11:07.099Z,943.04
2022-09-29T03:13:33.443Z,943.19
2022-09-29T03:15:59.860Z,943.06
2022-09-29T03:18:26.133Z,943.20
2022-09-29T03:20:52.453Z,943.23
2022-09-29T03:23:18.799Z,943.32
2022-09-29T03:25:45.148Z,943.45
2022-09-29T03:28:11.486Z,943.46
2022-09-29T03:30:37.799Z,943.49
2022-09-29T03:33:04.156Z,943.71
2022-09-29T03:35:30.497Z,943.80
2022-09-29T03:37:56.837Z,943.70
2022-09-29T03:40:23.261Z,943.59
2022-09-29T03:42:49.534Z,943.73
2022-09-29T03:45:15.874Z,943.87
2022-09-29T03:47:42.223Z,944.05
2022-09-29T03:50:08.564Z,943.93
2022-09-29T03:52:34.881Z,943.80
2022-09-29T03:55:01.201Z,943.71
2022-09-29T03:57:27.524Z,943.76
2022-09-29T03:59:53.869Z,943.66
2022-09-29T04:02:20.273Z,943.76
2022-09-29T04:04:46.541Z,943.66
2022-09-29T04:07:12.863Z,943.69
2022-09-29T04:09:39.201Z,943.66
2022-09-29T04:12:05.585Z,943.72
2022-09-29T04:14:31.899Z,943.77
2022-09-29T04:16:58.246Z,943.68
2022-09-29T04:19:24.564Z,943.73
2022-09-29T04:21:50.890Z,943.63
2022-09-29T04:24:17.229Z,943.57
2022-09-29T04:26:43.552Z,943.61
2022-09-29T04:29:09.939Z,943.61
2022-09-29T04:31:36.298Z,943.55
2022-09-29T04:34:02.575Z,943.49
2022-09-29T04:36:28.961Z,943.55
2022-09-29T04:38:55.278Z,943.55
2022-09-29T04:41:21.672Z,943.51
2022-09-29T04:43:47.957Z,943.69
2022-09-29T04:46:14.342Z,943.72
2022-09-29T04:48:40.603Z,943.61
2022-09-29T04:51:06.949Z,943.57
2022-09-29T04:53:33.289Z,943.60
2022-09-29T04:55:59.602Z,943.63
2022-09-29T04:58:25.965Z,943.58
2022-09-29T05:00:52.382Z,943.59
2022-09-29T05:03:18.632Z,943.62
2022-09-29T05:05:44.983Z,943.62
2022-09-29T05:08:11.323Z,943.57
2022-09-29T05:10:37.648Z,943.56
2022-09-29T05:13:03.967Z,943.54
2022-09-29T05:15:30.324Z,943.58
2022-09-29T05:17:56.708Z,943.55
2022-09-29T05:20:23.023Z,943.61
2022-09-29T05:22:49.380Z,943.67
2022-09-29T05:25:15.734Z,943.72
2022-09-29T05:27:42.068Z,943.81
2022-09-29T05:30:08.776Z,943.82
2022-09-29T05:32:35.105Z,943.70
2022-09-29T05:35:01.447Z,943.76
2022-09-29T05:37:27.782Z,943.69
2022-09-29T05:39:54.149Z,943.73
2022-09-29T05:42:20.496Z,943.73
2022-09-29T05:44:46.844Z,943.77
2022-09-29T05:47:13.168Z,943.76
2022-09-29T05:49:39.522Z,943.72
2022-09-29T05:52:05.863Z,943.80
2022-09-29T05:54:32.185Z,943.96
2022-09-29T05:56:58.529Z,944.00
2022-09-29T05:59:24.856Z,943.88
2022-09-29T06:01:51.263Z,943.83
2022-09-29T06:04:17.530Z,943.88
2022-09-29T06:06:43.870Z,943.99
2022-09-29T06:09:10.210Z,944.03
2022-09-29T06:11:36.526Z,943.98
2022-09-29T06:14:02.893Z,943.98
2022-09-29T06:16:29.234Z,944.03
2022-09-29T06:18:55.550Z,944.10
2022-09-29T06:21:21.887Z,944.13
2022-09-29T06:23:48.255Z,944.14
2022-09-29T06:26:14.629Z,944.00
2022-09-29T06:28:40.944Z,943.93
2022-09-29T06:31:07.289Z,943.99
2022-09-29T06:33:33.626Z,944.15
2022-09-29T06:35:59.984Z,944.20
2022-09-29T06:38:26.322Z,944.23
2022-09-29T06:40:52.694Z,944.21
2022-09-29T06:43:19.017Z,944.12
2022-09-29T06:45:45.383Z,944.12
2022-09-29T06:48:11.660Z,944.20
2022-09-29T06:50:38.008Z,944.18
2022-09-29T06:53:04.953Z,944.20
2022-09-29T06:55:30.701Z,944.18
2022-09-29T06:58:00.113Z,944.13
2022-09-29T07:00:23.436Z,944.23
2022-09-29T07:02:49.774Z,944.24
2022-09-29T07:05:16.110Z,944.33
2022-09-29T07:07:42.455Z,944.38
2022-09-29T07:10:08.800Z,944.36
2022-09-29T07:12:35.135Z,944.46
2022-09-29T07:15:01.491Z,944.51
2022-09-29T07:17:27.830Z,944.36
2022-09-29T07:19:54.170Z,944.39
2022-09-29T07:22:20.511Z,944.34
2022-09-29T07:24:46.837Z,944.37
2022-09-29T07:27:13.175Z,944.32
2022-09-29T07:29:39.521Z,944.22
2022-09-29T07:32:06.569Z,944.27
2022-09-29T07:34:32.200Z,944.19
2022-09-29T07:36:58.546Z,944.28
2022-09-29T07:39:24.871Z,944.26
2022-09-29T07:41:51.199Z,944.31
2022-09-29T07:44:17.639Z,944.34
2022-09-29T07:46:43.921Z,944.29
2022-09-29T07:49:10.227Z,944.32
2022-09-29T07:51:36.587Z,944.34
2022-09-29T07:54:02.932Z,944.36
2022-09-29T07:56:29.247Z,944.38
2022-09-29T07:58:55.631Z,944.51
2022-09-29T08:01:22.017Z,944.39
2022-09-29T08:03:48.312Z,944.47
2022-09-29T08:06:14.627Z,944.50
2022-09-29T08:08:42.253Z,944.51
2022-09-29T08:11:07.308Z,944.56
2022-09-29T08:13:33.673Z,944.66
2022-09-29T08:16:00.002Z,944.61
2022-09-29T08:18:26.344Z,944.70
2022-09-29T08:20:52.706Z,944.65
2022-09-29T08:23:19.050Z,944.68
2022-09-29T08:25:56.823Z,944.63
2022-09-29T08:28:14.134Z,944.68
2022-09-29T08:30:38.105Z,944.67
2022-09-29T08:33:04.408Z,944.76
2022-09-29T08:35:30.751Z,944.70
2022-09-29T08:37:57.072Z,944.78
2022-09-29T08:40:23.449Z,944.72
2022-09-29T08:42:49.754Z,944.75
2022-09-29T08:45:16.877Z,944.71
2022-09-29T08:47:47.361Z,944.66
2022-09-29T08:50:08.822Z,944.69
2022-09-29T08:52:49.045Z,944.71
2022-09-29T08:55:11.472Z,944.71
2022-09-29T08:57:27.869Z,944.71
2022-09-29T08:59:54.182Z,944.62
2022-09-29T09:02:20.586Z,944.61
2022-09-29T09:04:46.857Z,944.61
2022-09-29T09:07:13.177Z,944.67
2022-09-29T09:09:39.496Z,944.61
2022-09-29T09:12:05.819Z,944.61
2022-09-29T09:14:32.162Z,944.58
2022-09-29T09:16:58.567Z,944.60
2022-09-29T09:19:24.834Z,944.62
2022-09-29T09:21:51.177Z,944.58
2022-09-29T09:24:21.501Z,944.58
2022-09-29T09:26:43.864Z,944.58
2022-09-29T09:29:10.202Z,944.63
2022-09-29T09:31:36.562Z,944.66
2022-09-29T09:34:15.889Z,944.72
2022-09-29T09:36:34.244Z,944.66
2022-09-29T09:38:55.570Z,944.60
2022-09-29T09:41:21.897Z,944.58
2022-09-29T09:43:48.244Z,944.49
2022-09-29T09:46:14.720Z,944.51
2022-09-29T09:48:40.938Z,944.57
2022-09-29T09:51:07.286Z,944.56
2022-09-29T09:53:33.627Z,944.59
2022-09-29T09:55:59.970Z,944.49
2022-09-29T09:58:26.324Z,944.51
2022-09-29T10:00:52.717Z,944.43
2022-09-29T10:03:18.983Z,944.50
2022-09-29T10:05:45.363Z,944.56
2022-09-29T10:08:11.672Z,944.54
2022-09-29T10:10:47.518Z,944.59
2022-09-29T10:13:04.351Z,944.64
2022-09-29T10:15:30.673Z,944.65
2022-09-29T10:17:57.017Z,944.55
2022-09-29T10:20:23.340Z,944.59
2022-09-29T10:22:51.803Z,944.54
2022-09-29T10:25:16.058Z,944.43
2022-09-29T10:27:42.364Z,944.38
2022-09-29T10:30:08.710Z,944.43
2022-09-29T10:32:35.047Z,944.52
2022-09-29T10:35:01.379Z,944.49
2022-09-29T10:37:27.690Z,944.50
2022-09-29T10:39:54.033Z,944.56
2022-09-29T10:42:20.351Z,944.52
2022-09-29T10:44:46.679Z,944.51
2022-09-29T10:47:13.040Z,944.45
2022-09-29T10:49:39.389Z,944.45
2022-09-29T10:52:05.729Z,944.46
2022-09-29T10:54:32.048Z,944.43
2022-09-29T10:56:58.396Z,944.45
2022-09-29T10:59:24.730Z,944.49
2022-09-29T11:01:51.048Z,944.44
2022-09-29T11:04:17.638Z,944.38
2022-09-29T11:06:44.370Z,944.38
2022-09-29T11:09:10.199Z,944.32
2022-09-29T11:11:36.511Z,944.26
2022-09-29T11:14:02.900Z,944.19
2022-09-29T11:16:29.332Z,944.21
2022-09-29T11:18:55.559Z,944.18
2022-09-29T11:21:21.905Z,944.16
2022-09-29T11:23:48.220Z,944.15
2022-09-29T11:26:14.563Z,944.21
2022-09-29T11:28:40.891Z,944.12
2022-09-29T11:31:07.229Z,944.19
2022-09-29T11:33:33.530Z,944.14
2022-09-29T11:35:59.917Z,944.18
2022-09-29T11:38:26.236Z,944.10
2022-09-29T11:40:52.575Z,944.07
2022-09-29T11:43:18.923Z,944.04
2022-09-29T11:45:45.320Z,944.13
2022-09-29T11:48:11.583Z,944.08
2022-09-29T11:50:37.906Z,944.12
2022-09-29T11:53:04.262Z,944.00
2022-09-29T11:55:30.606Z,944.03
2022-09-29T11:57:56.927Z,944.04
2022-09-29T12:00:23.247Z,944.13
2022-09-29T12:02:49.649Z,944.09
2022-09-29T12:05:15.895Z,944.09
2022-09-29T12:07:42.220Z,943.98
2022-09-29T12:10:08.563Z,944.00
2022-09-29T12:12:34.909Z,944.02
2022-09-29T12:15:01.245Z,944.06
2022-09-29T12:17:27.565Z,944.00
2022-09-29T12:19:53.888Z,943.86
2022-09-29T12:22:20.251Z,943.95
2022-09-29T12:24:46.572Z,943.94
2022-09-29T12:27:12.912Z,943.89
2022-09-29T12:29:39.236Z,943.92
2022-09-29T12:32:05.563Z,943.91
2022-09-29T12:34:31.904Z,943.99
2022-09-29T12:36:58.276Z,943.92
2022-09-29T12:39:24.597Z,943.90
2022-09-29T12:41:50.941Z,943.90
2022-09-29T12:44:17.374Z,943.94
2022-09-29T12:46:43.613Z,943.98
2022-09-29T12:49:09.935Z,943.95
2022-09-29T12:51:36.283Z,943.94
2022-09-29T12:54:02.632Z,944.03
2022-09-29T12:56:28.954Z,944.01
2022-09-29T12:58:55.295Z,943.97
2022-09-29T13:01:21.647Z,943.91
2022-09-29T13:03:48.001Z,944.01
2022-09-29T13:06:14.297Z,943.97
2022-09-29T13:08:40.636Z,943.96
2022-09-29T13:11:06.959Z,943.98
2022-09-29T13:13:33.299Z,943.93
2022-09-29T13:15:59.723Z,943.94
2022-09-29T13:18:26.017Z,943.86
2022-09-29T13:20:52.361Z,943.94
2022-09-29T13:23:18.700Z,943.83
2022-09-29T13:25:45.043Z,943.89
2022-09-29T13:28:11.359Z,943.90
2022-09-29T13:30:37.732Z,943.92
2022-09-29T13:33:04.030Z,943.95
2022-09-29T13:35:30.353Z,944.00
2022-09-29T13:37:56.711Z,944.04
2022-09-29T13:40:23.052Z,944.08
2022-09-29T13:42:49.387Z,944.05
2022-09-29T13:45:15.709Z,944.09
2022-09-29T13:47:42.049Z,944.10
2022-09-29T13:50:08.396Z,944.04
2022-09-29T13:52:34.733Z,944.07
2022-09-29T13:55:01.086Z,944.13
2022-09-29T13:57:28.480Z,944.12
2022-09-29T13:59:53.735Z,944.11
2022-09-29T14:02:20.112Z,944.18
2022-09-29T14:04:46.409Z,944.17
2022-09-29T14:07:12.748Z,944.19
2022-09-29T14:09:39.224Z,944.23
2022-09-29T14:12:05.406Z,944.25
2022-09-29T14:14:31.734Z,944.23
2022-09-29T14:16:58.055Z,944.20
2022-09-29T14:19:24.406Z,944.15
2022-09-29T14:21:50.738Z,944.19
2022-09-29T14:24:20.732Z,944.23
2022-09-29T14:26:43.404Z,944.30
2022-09-29T14:29:09.743Z,944.36
2022-09-29T14:31:36.100Z,944.50
2022-09-29T14:34:02.434Z,944.55
2022-09-29T14:36:28.778Z,944.62
2022-09-29T14:39:14.793Z,944.70
2022-09-29T14:41:21.452Z,944.85
2022-09-29T14:43:47.806Z,944.98
2022-09-29T14:46:14.228Z,945.16
2022-09-29T14:48:40.492Z,945.36
2022-09-29T14:51:06.810Z,945.47
2022-09-29T14:53:33.169Z,945.45
2022-09-29T14:55:59.507Z,945.48
2022-09-29T14:58:25.871Z,945.42
2022-09-29T15:00:52.211Z,945.40
2022-09-29T15:03:27.668Z,945.23
2022-09-29T15:05:44.904Z,945.19
2022-09-29T15:08:11.247Z,945.13
2022-09-29T15:10:37.593Z,945.16
2022-09-29T15:13:03.919Z,945.12
2022-09-29T15:15:30.299Z,945.18
2022-09-29T15:17:56.610Z,945.10
2022-09-29T15:20:22.925Z,945.15
2022-09-29T15:22:49.267Z,945.20
2022-09-29T15:25:15.615Z,945.19
2022-09-29T15:27:41.936Z,945.22
2022-09-29T15:30:08.263Z,945.22
2022-09-29T15:32:34.581Z,945.17
2022-09-29T15:35:00.917Z,945.16
2022-09-29T15:37:27.252Z,945.21
2022-09-29T15:39:53.570Z,945.31
2022-09-29T15:42:19.918Z,945.32
2022-09-29T15:44:46.252Z,945.32
2022-09-29T15:47:12.604Z,945.44
2022-09-29T15:49:38.958Z,945.45
2022-09-29T15:52:05.287Z,945.45
2022-09-29T15:54:31.695Z,945.45
2022-09-29T15:56:57.961Z,945.43
2022-09-29T15:59:24.297Z,945.40
2022-09-29T16:01:50.687Z,945.40
2022-09-29T16:04:17.016Z,945.40
2022-09-29T16:06:43.342Z,945.43
2022-09-29T16:09:09.764Z,945.50
2022-09-29T16:11:36.010Z,945.50
2022-09-29T16:14:02.359Z,945.51
2022-09-29T16:16:28.780Z,945.50
2022-09-29T16:18:55.004Z,945.60
2022-09-29T16:21:21.351Z,945.63
2022-09-29T16:23:47.681Z,945.67
2022-09-29T16:26:14.027Z,945.75
2022-09-29T16:28:40.363Z,945.88
2022-09-29T16:31:06.758Z,945.98
2022-09-29T16:33:33.015Z,946.09
2022-09-29T16:35:59.340Z,946.21
2022-09-29T16:38:25.688Z,946.41
2022-09-29T16:40:52.034Z,946.49
2022-09-29T16:43:18.642Z,946.70
2022-09-29T16:45:44.984Z,946.81
2022-09-29T16:48:11.307Z,946.93
2022-09-29T16:50:37.677Z,946.85
2022-09-29T16:53:03.976Z,946.94
2022-09-29T16:55:30.316Z,947.01
2022-09-29T16:57:56.661Z,946.95
2022-09-29T17:00:23.004Z,946.96
2022-09-29T17:02:49.359Z,946.91
2022-09-29T17:05:15.642Z,946.90
2022-09-29T17:07:42.017Z,946.97
2022-09-29T17:10:08.329Z,947.04
2022-09-29T17:12:34.654Z,947.18
2022-09-29T17:15:01.023Z,947.16
2022-09-29T17:17:27.362Z,947.22
2022-09-29T17:19:53.696Z,947.16
2022-09-29T17:22:20.044Z,947.02
2022-09-29T17:24:46.448Z,946.95
2022-09-29T17:27:12.793Z,946.94
2022-09-29T17:29:39.143Z,946.89
2022-09-29T17:32:05.499Z,946.66
2022-09-29T17:34:32.144Z,946.64
2022-09-29T17:36:58.485Z,946.44
2022-09-29T17:39:24.851Z,946.41
2022-09-29T17:41:51.194Z,946.43
2022-09-29T17:44:17.521Z,946.48
2022-09-29T17:46:43.902Z,946.60
2022-09-29T17:49:10.202Z,946.64
2022-09-29T17:51:36.547Z,946.59
2022-09-29T17:54:02.865Z,946.64
2022-09-29T17:56:29.231Z,946.64
2022-09-29T17:58:55.554Z,946.59
2022-09-29T18:01:21.940Z,946.70
2022-09-29T18:03:48.251Z,946.69
2022-09-29T18:06:14.592Z,946.70
2022-09-29T18:08:40.939Z,946.77
2022-09-29T18:11:07.274Z,946.89
2022-09-29T18:13:33.582Z,946.89
2022-09-29T18:15:59.990Z,946.89
2022-09-29T18:18:26.288Z,946.93
2022-09-29T18:20:52.693Z,946.88
2022-09-29T18:23:19.073Z,946.94
2022-09-29T18:25:47.857Z,946.99
2022-09-29T18:28:11.824Z,946.85
2022-09-29T18:30:38.152Z,947.09
2022-09-29T18:33:04.501Z,947.37
2022-09-29T18:35:30.826Z,947.20
2022-09-29T18:37:57.164Z,947.27
2022-09-29T18:40:23.508Z,947.24
2022-09-29T18:42:49.845Z,947.20
2022-09-29T18:45:16.168Z,947.09
2022-09-29T18:47:42.507Z,947.20
2022-09-29T18:50:08.868Z,947.31
2022-09-29T18:52:35.183Z,947.30
2022-09-29T18:55:01.501Z,947.35
2022-09-29T18:57:27.848Z,947.36
2022-09-29T18:59:54.187Z,947.26
2022-09-29T19:02:20.670Z,947.10
2022-09-29T19:04:50.584Z,947.14
2022-09-29T19:07:13.191Z,947.22
2022-09-29T19:09:39.547Z,947.52
2022-09-29T19:12:05.833Z,947.46
2022-09-29T19:14:32.193Z,947.43
2022-09-29T19:16:58.532Z,947.54
2022-09-29T19:19:24.911Z,947.51
2022-09-29T19:21:51.287Z,947.18
2022-09-29T19:24:17.629Z,947.15
2022-09-29T19:26:43.942Z,947.28
2022-09-29T19:29:10.295Z,947.36
2022-09-29T19:31:36.639Z,947.43
2022-09-29T19:34:02.955Z,947.38
2022-09-29T19:36:29.272Z,947.39
2022-09-29T19:38:55.612Z,947.44
2022-09-29T19:41:21.983Z,947.42
2022-09-29T19:43:48.299Z,947.42
2022-09-29T19:46:14.670Z,947.49
2022-09-29T19:48:40.945Z,947.52
2022-09-29T19:51:07.287Z,947.55
2022-09-29T19:53:33.630Z,947.64
2022-09-29T19:55:59.961Z,947.79
2022-09-29T19:58:26.287Z,947.70
2022-09-29T20:00:52.646Z,947.65
2022-09-29T20:03:19.032Z,947.74
2022-09-29T20:05:45.373Z,947.63
2022-09-29T20:08:11.847Z,947.62
2022-09-29T20:10:38.169Z,947.69
2022-09-29T20:13:04.485Z,947.68
2022-09-29T20:15:30.838Z,947.65
2022-09-29T20:17:57.180Z,947.64
2022-09-29T20:20:23.494Z,947.59
2022-09-29T20:22:49.882Z,947.66
2022-09-29T20:25:16.196Z,947.63
2022-09-29T20:27:42.540Z,947.57
2022-09-29T20:30:08.857Z,947.59
2022-09-29T20:32:35.201Z,947.69
2022-09-29T20:35:01.532Z,947.81
2022-09-29T20:37:27.875Z,947.77
2022-09-29T20:39:54.209Z,947.78
2022-09-29T20:42:20.568Z,947.76
2022-09-29T20:44:46.906Z,947.94
2022-09-29T20:47:13.225Z,947.98
2022-09-29T20:49:39.565Z,948.06
2022-09-29T20:52:05.920Z,948.06
2022-09-29T20:54:32.266Z,948.13
2022-09-29T20:56:58.588Z,948.06
2022-09-29T20:59:24.905Z,948.05
2022-09-29T21:01:51.336Z,948.11
2022-09-29T21:04:17.720Z,948.15
2022-09-29T21:06:43.960Z,948.11
2022-09-29T21:09:10.312Z,948.09
2022-09-29T21:11:36.605Z,948.06
2022-09-29T21:14:02.928Z,948.14
2022-09-29T21:16:29.330Z,948.15
2022-09-29T21:18:55.616Z,948.16
2022-09-29T21:21:21.956Z,948.09
2022-09-29T21:23:48.273Z,948.11
2022-09-29T21:26:14.618Z,948.07
2022-09-29T21:28:40.981Z,948.07
2022-09-29T21:31:07.358Z,948.10
2022-09-29T21:33:33.635Z,948.05
2022-09-29T21:35:59.980Z,948.18
2022-09-29T21:38:26.297Z,948.11
2022-09-29T21:40:52.622Z,948.11
2022-09-29T21:43:18.987Z,948.02
2022-09-29T21:45:45.326Z,947.99
2022-09-29T21:48:11.665Z,947.93
2022-09-29T21:50:38.037Z,947.91
2022-09-29T21:53:04.354Z,948.09
2022-09-29T21:55:30.674Z,948.08
2022-09-29T21:57:57.026Z,948.05
2022-09-29T22:00:23.396Z,948.12
2022-09-29T22:02:49.847Z,948.01
2022-09-29T22:05:16.075Z,948.02
2022-09-29T22:07:42.387Z,948.06
2022-09-29T22:10:08.730Z,948.17
2022-09-29T22:12:35.111Z,947.99
2022-09-29T22:15:01.450Z,948.08
2022-09-29T22:17:27.785Z,948.08
2022-09-29T22:19:54.152Z,948.08
2022-09-29T22:22:20.462Z,948.15
2022-09-29T22:24:46.784Z,948.02
2022-09-29T22:27:13.169Z,948.03
2022-09-29T22:29:39.491Z,948.25
2022-09-29T22:32:05.810Z,947.94
2022-09-29T22:34:32.153Z,948.03
2022-09-29T22:36:58.473Z,948.28
2022-09-29T22:39:24.827Z,948.25
2022-09-29T22:41:51.169Z,948.29
2022-09-29T22:44:17.494Z,948.41
2022-09-29T22:46:43.887Z,948.28
2022-09-29T22:49:10.193Z,948.25
2022-09-29T22:51:36.513Z,948.29
2022-09-29T22:54:02.868Z,948.31
2022-09-29T22:56:29.342Z,948.24
2022-09-29T22:58:55.529Z,948.10
2022-09-29T23:01:21.953Z,948.30
2022-09-29T23:03:48.230Z,948.34
2022-09-29T23:06:14.547Z,948.21
2022-09-29T23:08:40.871Z,948.35
2022-09-29T23:11:07.240Z,948.26
2022-09-29T23:13:33.580Z,948.38
2022-09-29T23:15:59.953Z,948.27
2022-09-29T23:18:26.276Z,948.41
2022-09-29T23:20:52.621Z,948.47
2022-09-29T23:23:18.940Z,948.39
2022-09-29T23:25:45.323Z,948.47
2022-09-29T23:28:11.679Z,948.48
2022-09-29T23:30:37.998Z,948.50
2022-09-29T23:33:04.342Z,948.67
2022-09-29T23:35:30.692Z,948.70
2022-09-29T23:37:57.014Z,948.78
2022-09-29T23:40:23.361Z,948.74
2022-09-29T23:42:49.700Z,948.69
2022-09-29T23:45:16.033Z,948.73
2022-09-29T23:47:42.354Z,948.80
2022-09-29T23:50:08.673Z,948.69
2022-09-29T23:52:35.055Z,948.77
2022-09-29T23:55:01.373Z,948.81
2022-09-29T23:57:27.697Z,948.88
2022-09-29T23:59:54.037Z,948.88
